createdAt,value
2022-11-14T00:00:27.980Z,69.50
2022-11-14T00:02:54.606Z,68.60
2022-11-14T00:05:21.320Z,67.30
2022-11-14T00:07:48.061Z,67.20
2022-11-14T00:10:15.356Z,68.20
2022-11-14T00:12:42.144Z,69.80
2022-11-14T00:15:09.070Z,69.90
2022-11-14T00:17:35.593Z,69.60
2022-11-14T00:20:02.476Z,68.80
2022-11-14T00:22:28.985Z,69.30
2022-11-14T00:24:55.514Z,68.80
2022-11-14T00:27:22.019Z,68.10
2022-11-14T00:29:48.521Z,68.60
2022-11-14T00:32:15.123Z,68.70
2022-11-14T00:34:41.796Z,68.80
2022-11-14T00:37:08.387Z,68.40
2022-11-14T00:39:35.236Z,67.80
2022-11-14T00:42:01.898Z,66.80
2022-11-14T00:44:28.416Z,67.80
2022-11-14T00:46:54.955Z,66.50
2022-11-14T00:49:21.583Z,66.00
2022-11-14T00:51:48.100Z,66.60
2022-11-14T00:54:14.608Z,68.20
2022-11-14T00:56:41.148Z,69.40
2022-11-14T00:59:07.734Z,70.00
2022-11-14T01:01:34.328Z,71.30
2022-11-14T01:04:00.919Z,71.70
2022-11-14T01:06:27.489Z,70.30
2022-11-14T01:08:54.089Z,69.30
2022-11-14T01:11:21.805Z,68.60
2022-11-14T01:13:48.727Z,67.80
2022-11-14T01:16:15.345Z,67.20
2022-11-14T01:18:42.306Z,67.10
2022-11-14T01:21:10.065Z,66.60
2022-11-14T01:23:36.599Z,68.40
2022-11-14T01:26:04.305Z,70.10
2022-11-14T01:28:31.402Z,71.50
2022-11-14T01:31:07.141Z,71.20
2022-11-14T01:33:33.657Z,70.40
2022-11-14T01:36:00.440Z,69.50
2022-11-14T01:38:27.127Z,68.90
2022-11-14T01:40:53.810Z,69.90
2022-11-14T01:43:24.662Z,71.20
2022-11-14T01:45:53.319Z,70.80
2022-11-14T01:48:22.407Z,70.50
2022-11-14T01:50:50.980Z,71.10
2022-11-14T01:53:17.556Z,71.00
2022-11-14T01:55:44.265Z,69.90
2022-11-14T01:58:10.816Z,69.00
2022-11-14T02:00:37.450Z,68.50
2022-11-14T02:03:04.043Z,68.20
2022-11-14T02:05:30.950Z,68.20
2022-11-14T02:07:58.054Z,67.20
2022-11-14T02:10:24.649Z,66.70
2022-11-14T02:12:51.452Z,66.70
2022-11-14T02:15:18.310Z,67.40
2022-11-14T02:17:44.948Z,69.00
2022-11-14T02:20:11.666Z,70.80
2022-11-14T02:22:42.137Z,71.60
2022-11-14T02:25:09.604Z,71.80
2022-11-14T02:27:37.857Z,71.00
2022-11-14T02:30:09.610Z,69.50
2022-11-14T02:33:09.991Z,68.00
2022-11-14T02:35:22.651Z,68.20
2022-11-14T02:37:49.212Z,67.30
2022-11-14T02:40:15.925Z,67.10
2022-11-14T02:42:42.431Z,66.30
2022-11-14T02:45:09.602Z,66.40
2022-11-14T02:47:36.133Z,67.00
2022-11-14T02:50:02.714Z,68.80
2022-11-14T02:52:29.272Z,69.60
2022-11-14T02:54:55.773Z,69.70
2022-11-14T02:57:22.284Z,69.40
2022-11-14T02:59:48.877Z,70.00
2022-11-14T03:02:15.382Z,70.80
2022-11-14T03:04:41.974Z,71.10
2022-11-14T03:07:08.551Z,72.30
2022-11-14T03:09:35.122Z,72.80
2022-11-14T03:12:01.665Z,72.30
2022-11-14T03:14:30.740Z,71.60
2022-11-14T03:16:57.435Z,71.10
2022-11-14T03:19:24.192Z,71.70
2022-11-14T03:21:50.750Z,71.20
2022-11-14T03:24:17.318Z,70.90
2022-11-14T03:26:43.848Z,71.20
2022-11-14T03:29:10.397Z,72.20
2022-11-14T03:31:36.908Z,72.20
2022-11-14T03:34:03.521Z,72.20
2022-11-14T03:36:30.157Z,72.30
2022-11-14T03:38:56.772Z,72.90
2022-11-14T03:41:23.335Z,72.40
2022-11-14T03:43:49.842Z,72.20
2022-11-14T03:46:16.490Z,72.30
2022-11-14T03:48:43.008Z,73.80
2022-11-14T03:51:09.585Z,75.00
2022-11-14T03:53:36.105Z,74.70
2022-11-14T03:56:02.722Z,74.30
2022-11-14T03:58:29.514Z,75.10
2022-11-14T04:00:56.561Z,75.40
2022-11-14T04:03:24.238Z,75.00
2022-11-14T04:05:50.825Z,75.40
2022-11-14T04:08:17.652Z,75.00
2022-11-14T04:10:46.807Z,73.60
2022-11-14T04:13:13.345Z,72.20
2022-11-14T04:15:40.190Z,72.20
2022-11-14T04:18:06.693Z,72.30
2022-11-14T04:20:33.564Z,72.20
2022-11-14T04:23:00.150Z,72.20
2022-11-14T04:25:26.951Z,71.00
2022-11-14T04:27:53.670Z,70.20
2022-11-14T04:30:20.176Z,72.20
2022-11-14T04:32:48.392Z,73.00
2022-11-14T04:35:15.489Z,74.20
2022-11-14T04:37:41.997Z,74.30
2022-11-14T04:40:08.857Z,74.90
2022-11-14T04:42:35.428Z,77.80
2022-11-14T04:45:02.011Z,79.30
2022-11-14T04:47:28.633Z,84.10
2022-11-14T04:49:55.170Z,85.80
2022-11-14T04:52:21.691Z,87.60
2022-11-14T04:54:48.204Z,87.20
2022-11-14T04:57:14.917Z,86.60
2022-11-14T04:59:41.491Z,85.90
2022-11-14T05:02:08.063Z,85.60
2022-11-14T05:04:34.619Z,84.70
2022-11-14T05:07:01.218Z,84.70
2022-11-14T05:09:27.790Z,84.60
2022-11-14T05:11:54.318Z,84.10
2022-11-14T05:14:20.840Z,84.70
2022-11-14T05:16:47.464Z,84.70
2022-11-14T05:19:14.161Z,84.80
2022-11-14T05:21:40.655Z,84.60
2022-11-14T05:24:07.233Z,84.80
2022-11-14T05:26:33.776Z,85.10
2022-11-14T05:29:00.456Z,85.80
2022-11-14T05:31:26.962Z,86.30
2022-11-14T05:33:53.512Z,87.30
2022-11-14T05:36:20.053Z,87.40
2022-11-14T05:38:46.638Z,88.10
2022-11-14T05:41:14.299Z,88.80
2022-11-14T05:43:41.163Z,88.90
2022-11-14T05:46:09.801Z,88.80
2022-11-14T05:48:36.551Z,88.90
2022-11-14T05:51:04.159Z,88.90
2022-11-14T05:53:31.617Z,88.90
2022-11-14T05:56:05.050Z,88.90
2022-11-14T05:58:32.541Z,88.90
2022-11-14T06:01:25.408Z,90.00
2022-11-14T06:03:51.970Z,90.20
2022-11-14T06:06:19.658Z,90.50
2022-11-14T06:08:46.293Z,90.70
2022-11-14T06:11:14.278Z,91.20
2022-11-14T06:13:40.864Z,91.10
2022-11-14T06:16:11.848Z,91.10
2022-11-14T06:18:38.746Z,91.10
2022-11-14T06:21:10.477Z,91.10
2022-11-14T06:23:37.187Z,90.90
2022-11-14T06:26:05.042Z,90.90
2022-11-14T06:28:31.896Z,90.90
2022-11-14T06:31:02.370Z,91.20
2022-11-14T06:33:29.579Z,91.30
2022-11-14T06:35:59.731Z,91.70
2022-11-14T06:38:26.431Z,91.90
2022-11-14T06:40:53.019Z,92.10
2022-11-14T06:43:19.584Z,92.20
2022-11-14T06:45:46.128Z,92.20
2022-11-14T06:48:12.643Z,92.30
2022-11-14T06:50:39.180Z,92.70
2022-11-14T06:53:05.694Z,92.70
2022-11-14T06:55:32.225Z,93.00
2022-11-14T06:57:58.761Z,93.20
2022-11-14T07:00:25.272Z,93.20
2022-11-14T07:02:51.881Z,93.20
2022-11-14T07:05:18.486Z,93.20
2022-11-14T07:07:45.095Z,92.90
2022-11-14T07:10:11.665Z,92.60
2022-11-14T07:12:38.207Z,92.10
2022-11-14T07:15:04.968Z,91.60
2022-11-14T07:17:31.703Z,91.20
2022-11-14T07:19:58.303Z,90.80
2022-11-14T07:22:24.840Z,89.90
2022-11-14T07:24:51.397Z,90.00
2022-11-14T07:27:18.114Z,90.00
2022-11-14T07:29:44.665Z,90.00
2022-11-14T07:32:11.268Z,87.80
2022-11-14T07:34:37.770Z,86.30
2022-11-14T07:37:04.462Z,87.40
2022-11-14T07:39:30.974Z,87.40
2022-11-14T07:41:57.561Z,86.20
2022-11-14T07:44:24.087Z,84.00
2022-11-14T07:46:51.920Z,83.00
2022-11-14T07:49:18.557Z,79.20
2022-11-14T07:51:45.120Z,74.10
2022-11-14T07:54:12.021Z,67.30
2022-11-14T07:56:38.853Z,58.60
2022-11-14T07:59:05.554Z,51.70
2022-11-14T08:01:32.226Z,45.70
2022-11-14T08:03:58.831Z,38.20
2022-11-14T08:06:25.792Z,36.10
2022-11-14T08:08:52.326Z,31.10
2022-11-14T08:11:38.810Z,26.10
2022-11-14T08:14:05.501Z,23.60
2022-11-14T08:16:32.014Z,16.80
2022-11-14T08:18:58.509Z,16.30
2022-11-14T08:21:25.076Z,17.80
2022-11-14T08:23:51.601Z,15.60
2022-11-14T08:26:18.226Z,12.80
2022-11-14T08:28:44.744Z,10.60
2022-11-14T08:31:13.564Z,9.10
2022-11-14T08:33:40.109Z,6.30
2022-11-14T08:36:07.087Z,4.00
2022-11-14T08:38:34.398Z,1.80
2022-11-14T08:41:01.482Z,1.40
2022-11-14T08:43:28.074Z,5.60
2022-11-14T08:46:01.653Z,4.00
2022-11-14T08:48:29.389Z,3.50
2022-11-14T08:50:56.123Z,2.00
2022-11-14T08:53:22.985Z,1.00
2022-11-14T08:55:49.554Z,1.00
2022-11-14T08:58:16.273Z,1.00
2022-11-14T09:00:42.839Z,1.00
2022-11-14T09:03:10.031Z,1.00
2022-11-14T09:05:36.794Z,1.00
2022-11-14T09:08:03.802Z,1.00
2022-11-14T09:10:30.326Z,1.00
2022-11-14T09:13:00.449Z,1.00
2022-11-14T09:15:27.412Z,1.00
2022-11-14T09:17:57.359Z,1.00
2022-11-14T09:20:30.128Z,1.00
2022-11-14T09:22:59.651Z,1.00
2022-11-14T09:25:29.168Z,1.00
2022-11-14T09:27:56.046Z,1.00
2022-11-14T09:30:23.095Z,1.00
2022-11-14T09:32:50.128Z,1.00
2022-11-14T09:35:16.747Z,1.00
2022-11-14T09:37:43.249Z,1.00
2022-11-14T09:40:12.547Z,1.00
2022-11-14T09:42:57.987Z,1.00
2022-11-14T09:45:25.521Z,1.00
2022-11-14T09:48:05.423Z,1.00
2022-11-14T09:50:40.052Z,1.00
2022-11-14T09:53:15.754Z,1.00
2022-11-14T09:55:42.295Z,1.00
2022-11-14T09:58:15.285Z,1.00
2022-11-14T10:00:47.660Z,1.00
2022-11-14T10:03:14.132Z,1.00
2022-11-14T10:05:59.729Z,1.00
2022-11-14T10:08:34.922Z,1.00
2022-11-14T10:11:03.974Z,1.00
2022-11-14T10:13:42.765Z,1.00
2022-11-14T10:16:18.645Z,1.00
2022-11-14T10:19:10.874Z,1.00
2022-11-14T10:21:37.523Z,1.00
2022-11-14T10:24:10.177Z,1.00
2022-11-14T10:26:41.987Z,1.00
2022-11-14T10:29:23.794Z,1.00
2022-11-14T10:32:03.182Z,1.00
2022-11-14T10:34:36.198Z,1.00
2022-11-14T10:37:11.126Z,1.00
2022-11-14T10:39:41.006Z,1.00
2022-11-14T10:42:16.530Z,1.00
2022-11-14T10:44:50.498Z,1.00
2022-11-14T10:47:19.065Z,1.00
2022-11-14T10:49:46.704Z,1.00
2022-11-14T10:52:14.658Z,1.00
2022-11-14T10:54:44.472Z,1.00
2022-11-14T10:57:18.124Z,1.00
2022-11-14T10:59:44.735Z,1.00
2022-11-14T11:02:11.529Z,1.00
2022-11-14T11:04:39.604Z,1.00
2022-11-14T11:07:09.263Z,1.00
2022-11-14T11:09:55.016Z,1.00
2022-11-14T11:12:23.067Z,1.00
2022-11-14T11:15:07.237Z,1.00
2022-11-14T11:17:40.084Z,1.00
2022-11-14T11:20:23.831Z,1.00
2022-11-14T11:23:03.338Z,1.00
2022-11-14T11:25:30.880Z,1.00
2022-11-14T11:28:07.922Z,1.00
2022-11-14T11:30:34.487Z,1.00
2022-11-14T11:33:14.661Z,1.00
2022-11-14T11:35:42.883Z,1.00
2022-11-14T11:38:14.681Z,1.00
2022-11-14T11:40:43.853Z,1.00
2022-11-14T11:43:39.693Z,1.00
2022-11-14T11:46:11.694Z,1.00
2022-11-14T11:48:39.106Z,1.00
2022-11-14T11:51:06.962Z,1.00
2022-11-14T11:53:36.636Z,1.00
2022-11-14T11:56:12.348Z,1.00
2022-11-14T11:58:49.744Z,1.00
2022-11-14T12:01:16.717Z,1.00
2022-11-14T12:03:50.767Z,1.00
2022-11-14T12:06:24.826Z,1.00
2022-11-14T12:09:03.420Z,1.00
2022-11-14T12:11:32.065Z,1.00
2022-11-14T12:14:17.389Z,1.00
2022-11-14T12:16:53.090Z,1.00
2022-11-14T12:19:32.042Z,1.00
2022-11-14T12:22:15.879Z,1.00
2022-11-14T12:25:20.719Z,1.00
2022-11-14T12:27:55.674Z,1.00
2022-11-14T12:30:23.509Z,1.00
2022-11-14T12:32:50.047Z,1.00
2022-11-14T12:35:36.884Z,1.00
2022-11-14T12:38:05.124Z,1.00
2022-11-14T12:40:35.375Z,1.00
2022-11-14T12:43:02.876Z,1.00
2022-11-14T12:45:41.566Z,1.00
2022-11-14T12:48:14.392Z,1.00
2022-11-14T12:50:43.860Z,1.00
2022-11-14T12:53:35.775Z,1.00
2022-11-14T12:56:14.534Z,1.00
2022-11-14T12:58:59.868Z,1.00
2022-11-14T13:01:26.463Z,1.00
2022-11-14T13:04:07.254Z,1.00
2022-11-14T13:06:36.835Z,1.00
2022-11-14T13:09:28.652Z,1.00
2022-11-14T13:12:13.845Z,1.00
2022-11-14T13:15:09.404Z,1.00
2022-11-14T13:17:54.823Z,1.00
2022-11-14T13:20:39.850Z,1.00
2022-11-14T13:23:26.614Z,1.00
2022-11-14T13:26:11.240Z,1.00
2022-11-14T13:28:37.846Z,1.00
2022-11-14T13:31:16.553Z,1.00
2022-11-14T13:33:49.536Z,1.00
2022-11-14T13:36:34.767Z,1.00
2022-11-14T13:39:07.314Z,1.00
2022-11-14T13:41:47.006Z,1.00
2022-11-14T13:44:35.416Z,1.00
2022-11-14T13:47:18.560Z,1.00
2022-11-14T13:49:53.922Z,1.00
2022-11-14T13:52:21.868Z,1.00
2022-11-14T13:54:49.070Z,1.00
2022-11-14T13:57:25.929Z,1.00
2022-11-14T14:00:01.167Z,1.00
2022-11-14T14:02:42.348Z,1.00
2022-11-14T14:05:19.234Z,1.00
2022-11-14T14:07:58.095Z,1.00
2022-11-14T14:10:41.300Z,1.00
2022-11-14T14:13:18.349Z,1.00
2022-11-14T14:15:49.045Z,1.00
2022-11-14T14:18:21.877Z,1.00
2022-11-14T14:20:55.015Z,1.00
2022-11-14T14:23:36.776Z,1.00
2022-11-14T14:26:12.521Z,1.00
2022-11-14T14:28:42.196Z,1.00
2022-11-14T14:31:23.341Z,1.00
2022-11-14T14:33:51.347Z,1.00
2022-11-14T14:36:19.102Z,1.00
2022-11-14T14:38:46.100Z,1.00
2022-11-14T14:41:14.276Z,1.00
2022-11-14T14:43:41.528Z,1.00
2022-11-14T14:46:08.272Z,1.00
2022-11-14T14:48:35.996Z,1.00
2022-11-14T14:51:03.427Z,1.00
2022-11-14T14:53:31.096Z,1.00
2022-11-14T14:56:17.162Z,1.00
2022-11-14T14:58:43.924Z,1.00
2022-11-14T15:01:21.011Z,1.00
2022-11-14T15:03:58.414Z,1.00
2022-11-14T15:06:36.440Z,1.00
2022-11-14T15:09:08.364Z,1.00
2022-11-14T15:11:36.257Z,1.00
2022-11-14T15:14:02.974Z,1.00
2022-11-14T15:16:29.697Z,1.00
2022-11-14T15:18:57.094Z,1.80
2022-11-14T15:21:27.115Z,2.60
2022-11-14T15:24:12.449Z,3.00
2022-11-14T15:26:39.401Z,3.00
2022-11-14T15:29:06.759Z,3.00
2022-11-14T15:31:34.545Z,2.90
2022-11-14T15:34:02.411Z,3.60
2022-11-14T15:36:29.031Z,3.80
2022-11-14T15:39:03.511Z,5.40
2022-11-14T15:41:33.535Z,6.30
2022-11-14T15:44:03.036Z,7.00
2022-11-14T15:46:37.389Z,7.50
2022-11-14T15:49:15.852Z,7.70
2022-11-14T15:51:50.347Z,9.20
2022-11-14T15:54:24.449Z,9.90
2022-11-14T15:56:51.540Z,11.70
2022-11-14T15:59:18.391Z,12.00
2022-11-14T16:01:46.764Z,12.10
2022-11-14T16:04:15.880Z,13.80
2022-11-14T16:06:42.481Z,12.20
2022-11-14T16:09:13.663Z,13.50
2022-11-14T16:11:40.225Z,14.20
2022-11-14T16:14:06.802Z,15.30
2022-11-14T16:16:33.313Z,15.20
2022-11-14T16:18:59.926Z,16.50
2022-11-14T16:21:26.827Z,16.70
2022-11-14T16:23:53.460Z,17.60
2022-11-14T16:26:20.277Z,18.00
2022-11-14T16:28:46.820Z,18.20
2022-11-14T16:31:14.000Z,18.90
2022-11-14T16:33:40.885Z,19.90
2022-11-14T16:36:10.050Z,20.40
2022-11-14T16:38:36.657Z,20.80
2022-11-14T16:41:06.007Z,20.70
2022-11-14T16:43:32.791Z,20.70
2022-11-14T16:46:02.868Z,20.70
2022-11-14T16:48:29.575Z,20.70
2022-11-14T16:50:57.057Z,20.70
2022-11-14T16:53:23.598Z,21.80
2022-11-14T16:55:50.115Z,21.80
2022-11-14T16:58:16.641Z,22.30
2022-11-14T17:00:43.646Z,22.80
2022-11-14T17:03:10.145Z,23.40
2022-11-14T17:05:46.873Z,23.20
2022-11-14T17:08:13.495Z,23.60
2022-11-14T17:10:43.824Z,24.40
2022-11-14T17:13:10.804Z,24.90
2022-11-14T17:15:37.610Z,25.80
2022-11-14T17:18:04.657Z,26.00
2022-11-14T17:20:31.279Z,26.50
2022-11-14T17:22:58.330Z,27.10
2022-11-14T17:25:24.947Z,27.00
2022-11-14T17:27:51.702Z,27.90
2022-11-14T17:30:18.568Z,28.30
2022-11-14T17:32:45.220Z,29.10
2022-11-14T17:35:11.816Z,29.20
2022-11-14T17:37:38.522Z,29.10
2022-11-14T17:40:05.396Z,30.20
2022-11-14T17:42:31.954Z,32.60
2022-11-14T17:45:00.852Z,32.50
2022-11-14T17:47:27.763Z,33.60
2022-11-14T17:49:54.349Z,34.60
2022-11-14T17:52:20.939Z,35.00
2022-11-14T17:54:47.513Z,36.00
2022-11-14T17:57:14.214Z,37.30
2022-11-14T17:59:41.310Z,37.80
2022-11-14T18:02:13.320Z,39.30
2022-11-14T18:04:39.880Z,39.40
2022-11-14T18:07:06.482Z,39.20
2022-11-14T18:09:33.033Z,39.20
2022-11-14T18:11:59.612Z,39.10
2022-11-14T18:14:26.338Z,41.20
2022-11-14T18:17:16.575Z,42.50
2022-11-14T18:19:39.551Z,43.60
2022-11-14T18:22:06.113Z,44.00
2022-11-14T18:24:32.641Z,44.80
2022-11-14T18:26:59.174Z,45.30
2022-11-14T18:29:25.762Z,47.20
2022-11-14T18:31:52.264Z,47.70
2022-11-14T18:34:19.523Z,47.80
2022-11-14T18:36:46.182Z,48.60
2022-11-14T18:39:13.008Z,48.40
2022-11-14T18:41:39.584Z,50.40
2022-11-14T18:44:06.269Z,50.40
2022-11-14T18:46:37.047Z,50.80
2022-11-14T18:49:04.231Z,50.40
2022-11-14T18:51:30.888Z,50.30
2022-11-14T18:53:59.070Z,50.30
2022-11-14T18:56:25.720Z,50.30
2022-11-14T18:58:53.490Z,50.30
2022-11-14T19:01:24.024Z,50.20
2022-11-14T19:03:51.133Z,51.60
2022-11-14T19:06:17.667Z,51.40
2022-11-14T19:08:44.844Z,51.90
2022-11-14T19:11:32.715Z,52.00
2022-11-14T19:14:03.814Z,51.90
2022-11-14T19:16:31.593Z,52.50
2022-11-14T19:18:58.361Z,52.50
2022-11-14T19:21:24.850Z,52.60
2022-11-14T19:23:51.446Z,52.50
2022-11-14T19:26:17.950Z,52.70
2022-11-14T19:28:44.487Z,52.60
2022-11-14T19:31:11.042Z,52.90
2022-11-14T19:33:39.528Z,53.10
2022-11-14T19:36:07.092Z,53.30
2022-11-14T19:38:33.858Z,52.90
2022-11-14T19:41:07.653Z,52.70
2022-11-14T19:43:34.499Z,53.30
2022-11-14T19:46:02.663Z,53.30
2022-11-14T19:48:29.739Z,53.50
2022-11-14T19:51:06.387Z,53.50
2022-11-14T19:53:34.159Z,53.70
2022-11-14T19:56:01.695Z,54.10
2022-11-14T19:58:28.318Z,53.40
2022-11-14T20:01:02.299Z,54.20
2022-11-14T20:03:29.638Z,55.00
2022-11-14T20:05:56.426Z,55.00
2022-11-14T20:08:23.270Z,55.30
2022-11-14T20:10:55.655Z,56.10
2022-11-14T20:13:22.193Z,56.40
2022-11-14T20:15:48.674Z,55.40
2022-11-14T20:18:15.203Z,55.90
2022-11-14T20:20:41.731Z,56.50
2022-11-14T20:23:08.626Z,55.90
2022-11-14T20:25:35.694Z,55.00
2022-11-14T20:28:02.575Z,55.80
2022-11-14T20:30:29.237Z,57.20
2022-11-14T20:32:55.735Z,57.00
2022-11-14T20:35:22.264Z,59.10
2022-11-14T20:37:48.792Z,59.50
2022-11-14T20:40:15.475Z,58.70
2022-11-14T20:42:42.043Z,58.10
2022-11-14T20:45:08.722Z,57.30
2022-11-14T20:47:35.296Z,57.60
2022-11-14T20:50:01.917Z,56.90
2022-11-14T20:52:28.479Z,57.10
2022-11-14T20:54:55.059Z,57.10
2022-11-14T20:57:21.654Z,57.10
2022-11-14T20:59:48.189Z,57.90
2022-11-14T21:02:14.968Z,58.40
2022-11-14T21:04:41.584Z,58.80
2022-11-14T21:07:08.127Z,59.90
2022-11-14T21:09:34.684Z,59.90
2022-11-14T21:12:01.206Z,59.90
2022-11-14T21:14:27.724Z,59.90
2022-11-14T21:16:54.375Z,59.90
2022-11-14T21:19:20.931Z,59.90
2022-11-14T21:21:47.485Z,59.90
2022-11-14T21:24:14.015Z,59.90
2022-11-14T21:26:40.605Z,59.90
2022-11-14T21:29:09.653Z,59.90
2022-11-14T21:31:39.037Z,59.90
2022-11-14T21:34:12.856Z,60.00
2022-11-14T21:36:47.289Z,59.90
2022-11-14T21:39:15.889Z,59.90
2022-11-14T21:41:43.650Z,60.50
2022-11-14T21:44:11.833Z,61.10
2022-11-14T21:46:38.852Z,60.90
2022-11-14T21:49:05.455Z,61.30
2022-11-14T21:51:32.009Z,61.80
2022-11-14T21:53:58.649Z,61.80
2022-11-14T21:56:29.459Z,62.60
2022-11-14T21:59:12.524Z,63.40
2022-11-14T22:02:02.191Z,63.80
2022-11-14T22:04:28.818Z,64.30
2022-11-14T22:06:55.679Z,64.00
2022-11-14T22:09:22.269Z,64.70
2022-11-14T22:11:48.843Z,64.60
2022-11-14T22:14:15.414Z,64.90
2022-11-14T22:16:41.930Z,65.10
2022-11-14T22:19:08.440Z,65.10
2022-11-14T22:21:34.981Z,65.80
2022-11-14T22:24:01.587Z,65.80
2022-11-14T22:26:28.352Z,65.40
2022-11-14T22:28:54.921Z,65.90
2022-11-14T22:31:22.677Z,66.10
2022-11-14T22:33:53.150Z,65.60
2022-11-14T22:36:24.247Z,65.90
2022-11-14T22:38:54.438Z,65.30
2022-11-14T22:41:30.477Z,65.80
2022-11-14T22:43:59.042Z,65.30
2022-11-14T22:46:27.051Z,65.90
2022-11-14T22:48:54.237Z,66.30
2022-11-14T22:51:21.875Z,66.70
2022-11-14T22:53:49.762Z,66.40
2022-11-14T22:56:17.530Z,66.90
2022-11-14T22:58:44.566Z,67.00
2022-11-14T23:01:11.287Z,68.40
2022-11-14T23:03:38.716Z,68.50
2022-11-14T23:06:06.371Z,68.50
2022-11-14T23:08:34.109Z,68.40
2022-11-14T23:11:03.252Z,68.40
2022-11-14T23:13:30.002Z,68.40
2022-11-14T23:15:56.798Z,68.40
2022-11-14T23:18:23.508Z,68.40
2022-11-14T23:20:50.023Z,68.40
2022-11-14T23:23:16.611Z,68.40
2022-11-14T23:25:43.187Z,68.30
2022-11-14T23:28:09.733Z,68.40
2022-11-14T23:30:36.399Z,68.30
2022-11-14T23:33:02.995Z,69.80
2022-11-14T23:35:29.509Z,69.90
2022-11-14T23:37:56.032Z,69.90
2022-11-14T23:40:22.586Z,70.10
2022-11-14T23:42:49.146Z,70.10
2022-11-14T23:45:15.694Z,70.20
2022-11-14T23:47:42.222Z,70.60
2022-11-14T23:50:09.317Z,70.60
2022-11-14T23:52:35.829Z,71.30
2022-11-14T23:55:02.807Z,70.90
2022-11-14T23:57:30.599Z,71.10
2022-11-14T23:59:57.635Z,71.70
